Sterling, IL (61081)

9:09 AM CDT on October 22, 2014 (GMT -0500)
Snavely Subdivision (2.0mi NE Sterling) | Change Station
CLOSE
Current Station
Personal Weather Station
Location: Sterling, IL
Elevation: 715 ft
Nearby Weather Stations

Elev 715 ft 41.82 °N, 89.67 °W | Updated 10 seconds ago

Clear
Clear
41.3 °F
Feels Like 41 °F
N
0.0
Wind Variable Wind from ENE
Gusts 0.0 mph

Today
High -- | Low -- °F
--% Chance of Precip.
Yesterday
High -- | Low -- °F
Precip. -- in
7:19 AM 6:06 PM
Waning Crescent, 2% visible
Pressure 30.35 in
Visibility 9.0 miles
Clouds Clear
Windchill 41 °F
Dew Point 40 °F
Humidity 97%
Rainfall 0.00 in
Snow Depth Not available.
UV 1 out of 12
Pollen 1.10 out of 12
Air Quality Not available.
Flu Activity No Activity
METAR KSQI 221355Z AUTO 09006KT 9SM CLR 04/02 A3035 RMK AO1

More Conditions Fewer Conditions

Pressure 30.35 in
Visibility 9.0 miles
Clouds Clear
Windchill 41 °F
Dew Point 40 °F
Humidity 97%
Rainfall 0.00 in
Snow Depth Not available.
UV 1 out of 12
Pollen 1.10 out of 12
Air Quality Not available.
Flu Activity No Activity
METAR KSQI 221355Z AUTO 09006KT 9SM CLR 04/02 A3035 RMK AO1

More Conditions Fewer Conditions

10-Day Weather Forecast

Almanac

Astronomy

Oct. 22, 2014 Rise Set
Actual Time 7:19 AM CDT 6:06 PM CDT
Civil Twilight 6:50 AM CDT 6:35 PM CDT
Nautical Twilight 6:18 AM CDT 7:07 PM CDT
Astronomical Twilight 5:46 AM CDT 7:39 PM CDT
Moon 5:59 AM CDT 5:34 PM CDT
Length of Visible Light 11h 44m
Length of Day
10h 47m
Tomorrow will be 2m 38s shorter.
Waning Crescent, 2% of the Moon is Illuminated
Today
Waning Crescent
Oct 23
New
Oct 30
First Quarter
Nov 6
Full
Nov 14
Last Quarter

Today's Extremes

State Highs State Lows

Community

WunderPhotos

Upload Photos

1,763,923 photos uploaded!

WunderBlogs® & News

Nearby

Snow Depth

Station Depth Elevation
No new snow has been reported.

Earthquake Activity

City Distance Mag. Time & Date
No recent earthquake activity has been reported nearby.
Minimum magnitude displayed is 2.5.

Coastal Water Temperatures

Place Temperature
No Stations Reporting

Nearby Weather Stations